Terminal Aerodrome Forecast
Issued by NWS Lake Charles, LA

Home | Current Version | Previous Version | Text Only | Print | Product List | Glossary On
Versions: 1 2 3 4 5 6 7 8 9 10 11 12 13 14 15 16 17 18 19 20 21
000
FTUS44 KLCH 172004 AAA
TAFLCH
TAF AMD
KLCH 172004Z 1720/1818 18011KT P6SM VCSH BKN015
      TEMPO 1720/1724 BKN025
     FM180100 15005KT P6SM VCSH SCT006 OVC015
     FM180600 12005KT 4SM BR VCSH OVC004
     FM181500 15007KT 5SM -SHRA BR OVC008=

USA.gov is the U.S. government's official web portal to all federal, state and local government web resources and services.